Time;durP1;ratioP1;P1;durP2;ratioP2;P2;SDS_P1;SDS_P2;PMS_P1;PMS_P2;Temp;Humidity;BMP_temperature;BMP_pressure;BME280_temperature;BME280_humidity;BME280_pressure;Samples;Min_cycle;Max_cycle;Signal;HPM_P1;HPM_P2
2023/05/31 00:00:26;;;;;;;4.78;3.75;;;;;;;25.21;55.50;101145.91;5093693;28;20048;-57
2023/05/31 00:02:53;;;;;;;4.25;3.70;;;;;;;25.21;55.29;101157.59;5093877;28;20059;-56
2023/05/31 00:05:21;;;;;;;4.45;4.05;;;;;;;25.21;55.58;101163.00;5093654;28;20043;-57
2023/05/31 00:07:48;;;;;;;4.82;3.75;;;;;;;25.21;55.31;101167.59;5093348;28;20511;-57
2023/05/31 00:10:15;;;;;;;4.47;3.38;;;;;;;25.21;55.42;101173.00;5093874;28;20055;-57
2023/05/31 00:12:43;;;;;;;7.28;3.83;;;;;;;25.20;55.38;101176.69;5092377;28;20484;-57
2023/05/31 00:15:10;;;;;;;5.20;3.80;;;;;;;25.20;55.56;101171.28;5093514;28;20388;-57
2023/05/31 00:17:38;;;;;;;5.30;4.18;;;;;;;25.20;55.43;101176.69;5088120;28;20059;-56
2023/05/31 00:20:08;;;;;;;4.47;3.50;;;;;;;25.20;55.28;101176.69;5071749;28;20044;-57
2023/05/31 00:22:35;;;;;;;5.20;3.80;;;;;;;25.19;55.31;101173.16;5073180;28;20048;-57
2023/05/31 00:25:03;;;;;;;5.13;3.95;;;;;;;25.20;55.42;101182.13;5072477;28;20040;-57
2023/05/31 00:27:30;;;;;;;5.82;3.50;;;;;;;25.19;55.44;101169.59;5072943;28;20390;-57
2023/05/31 00:29:59;;;;;;;5.13;3.75;;;;;;;25.19;55.36;101175.84;5072322;28;20056;-57
2023/05/31 00:32:27;;;;;;;4.80;3.78;;;;;;;25.19;55.40;101180.44;5072210;28;20052;-57
2023/05/31 00:34:54;;;;;;;5.32;4.10;;;;;;;25.18;55.31;101179.59;5073516;28;20052;-57
2023/05/31 00:37:21;;;;;;;6.22;4.28;;;;;;;25.19;55.46;101183.13;5073013;28;20060;-58
2023/05/31 00:39:49;;;;;;;4.65;3.60;;;;;;;25.18;55.47;101187.72;5072920;28;20048;-57
2023/05/31 00:42:16;;;;;;;4.20;3.55;;;;;;;25.18;55.54;101184.16;5071955;28;20051;-57
2023/05/31 00:44:44;;;;;;;4.47;4.07;;;;;;;25.18;55.37;101184.16;5071928;28;20052;-57
2023/05/31 00:47:11;;;;;;;4.40;3.67;;;;;;;25.18;55.48;101184.16;5083846;28;20062;-58
2023/05/31 00:49:39;;;;;;;5.40;3.97;;;;;;;25.17;55.50;101188.75;5092931;28;20044;-58
2023/05/31 00:52:07;;;;;;;4.32;3.58;;;;;;;25.18;55.42;101184.16;5091833;28;20048;-57
2023/05/31 00:54:34;;;;;;;5.30;4.43;;;;;;;25.18;55.53;101184.16;5093126;28;20059;-57
2023/05/31 00:57:02;;;;;;;5.85;3.92;;;;;;;25.17;55.71;101180.59;5091867;28;20055;-57
2023/05/31 00:59:29;;;;;;;6.05;3.47;;;;;;;25.17;55.48;101183.31;5092843;28;20067;-57
2023/05/31 01:01:57;;;;;;;5.97;4.22;;;;;;;25.17;55.42;101183.31;5092140;28;20059;-57
2023/05/31 01:04:25;;;;;;;4.32;3.58;;;;;;;25.17;55.69;101177.06;5092790;28;20058;-58
2023/05/31 01:06:52;;;;;;;4.95;3.75;;;;;;;25.17;55.48;101177.06;5093130;28;20411;-58
2023/05/31 01:09:21;;;;;;;5.53;3.92;;;;;;;25.17;55.42;101179.75;5092837;28;20040;-58
2023/05/31 01:12:02;;;;;;;5.68;4.30;;;;;;;25.17;55.41;101174.34;5092901;28;20055;-57
2023/05/31 01:14:54;;;;;;;5.45;3.33;;;;;;;25.15;55.46;101186.16;5091773;28;20542;-57
2023/05/31 01:17:59;;;;;;;5.60;3.97;;;;;;;25.16;55.39;101187.03;5092499;28;20036;-57
2023/05/31 01:20:34;;;;;;;4.78;3.83;;;;;;;25.17;55.35;101187.88;5071994;28;20048;-57
2023/05/31 01:23:22;;;;;;;4.32;3.53;;;;;;;25.16;55.48;101187.03;5071129;28;20519;-57
2023/05/31 01:26:18;;;;;;;5.57;4.22;;;;;;;25.15;55.31;101186.16;5072140;28;20397;-57
2023/05/31 01:28:50;;;;;;;5.38;4.05;;;;;;;25.14;55.36;101184.47;5072280;28;20041;-57
2023/05/31 01:31:20;;;;;;;5.87;3.83;;;;;;;25.15;55.44;101185.31;5082080;28;20518;-57
2023/05/31 01:33:50;;;;;;;5.65;4.40;;;;;;;25.15;55.39;101190.75;5091897;28;20516;-57
2023/05/31 01:36:17;;;;;;;4.60;3.78;;;;;;;25.14;55.55;101198.03;5092707;28;20079;-58
2023/05/31 01:38:45;;;;;;;4.72;4.13;;;;;;;25.14;55.58;101192.59;5095732;28;20055;-58
2023/05/31 01:41:14;;;;;;;5.10;4.05;;;;;;;25.14;55.47;101189.91;5096264;28;20047;-57
2023/05/31 01:43:44;;;;;;;6.43;3.75;;;;;;;25.14;55.45;101191.75;5094595;28;20078;-57
2023/05/31 01:46:14;;;;;;;4.82;4.10;;;;;;;25.14;55.43;101192.59;5095059;28;20059;-57
2023/05/31 01:48:42;;;;;;;4.82;3.85;;;;;;;25.14;55.62;101195.31;5095183;28;20055;-57
2023/05/31 01:51:14;;;;;;;5.65;4.05;;;;;;;25.13;55.55;101190.91;5095098;28;20048;-57
2023/05/31 01:53:42;;;;;;;4.60;3.53;;;;;;;25.13;55.60;101193.63;5094989;28;20059;-57
2023/05/31 01:56:11;;;;;;;5.32;3.90;;;;;;;25.14;55.33;101191.75;5094891;28;20052;-57
2023/05/31 01:58:47;;;;;;;4.10;3.42;;;;;;;25.14;55.51;101183.63;5095823;28;20051;-57
2023/05/31 02:01:17;;;;;;;5.07;4.22;;;;;;;25.13;55.86;101188.22;5094363;28;20051;-57
2023/05/31 02:03:48;;;;;;;4.13;3.47;;;;;;;25.13;55.49;101181.94;5094591;28;20491;-57
2023/05/31 02:06:16;;;;;;;5.05;3.75;;;;;;;25.13;55.37;101185.50;5095657;28;20407;-57
2023/05/31 02:08:44;;;;;;;4.97;3.80;;;;;;;25.12;55.41;101183.81;5095650;28;20047;-57
2023/05/31 02:11:11;;;;;;;4.65;4.00;;;;;;;25.12;55.40;101180.25;5094807;28;20055;-57
2023/05/31 02:13:39;;;;;;;5.22;3.85;;;;;;;25.13;55.50;101187.34;5094307;28;20051;-57
2023/05/31 02:16:07;;;;;;;4.65;3.90;;;;;;;25.13;55.45;101188.22;5094470;28;20427;-57
2023/05/31 02:18:35;;;;;;;5.00;3.70;;;;;;;25.12;55.67;101180.25;5078021;28;20052;-57
2023/05/31 02:21:03;;;;;;;5.20;4.40;;;;;;;25.12;55.61;101181.09;5076737;28;20515;-57
2023/05/31 02:23:30;;;;;;;4.82;3.60;;;;;;;25.13;55.41;101184.66;5073725;28;20048;-57
2023/05/31 02:25:58;;;;;;;4.65;3.58;;;;;;;25.12;55.32;101178.38;5074450;28;20056;-57
2023/05/31 02:28:26;;;;;;;4.20;3.53;;;;;;;25.13;55.46;101181.94;5075069;28;20051;-57
2023/05/31 02:30:58;;;;;;;5.63;3.40;;;;;;;25.13;55.37;101181.94;5073705;28;20052;-57
2023/05/31 02:33:27;;;;;;;5.25;3.50;;;;;;;25.13;55.31;101181.94;5074380;28;20045;-58
2023/05/31 02:35:56;;;;;;;4.95;3.95;;;;;;;25.11;55.17;101179.38;5073647;28;20055;-57
2023/05/31 02:38:24;;;;;;;5.18;3.70;;;;;;;25.11;55.58;101171.25;5074739;28;20048;-58
2023/05/31 02:40:52;;;;;;;4.00;3.13;;;;;;;25.11;55.41;101175.81;5074690;28;20049;-57
2023/05/31 02:43:19;;;;;;;5.50;3.88;;;;;;;25.11;55.46;101170.41;5073930;28;20052;-57
2023/05/31 02:45:47;;;;;;;4.07;3.42;;;;;;;25.11;55.31;101175.81;5073470;28;20509;-57
2023/05/31 02:48:14;;;;;;;4.93;4.15;;;;;;;25.11;55.30;101173.97;5091272;28;20048;-58
2023/05/31 02:50:42;;;;;;;4.55;3.67;;;;;;;25.11;55.22;101173.13;5094173;28;20047;-57
2023/05/31 02:53:30;;;;;;;5.28;3.80;;;;;;;25.10;55.24;101180.38;5100825;28;20063;-57
2023/05/31 02:56:05;;;;;;;5.82;3.83;;;;;;;25.10;55.32;101177.69;5078091;28;20522;-57
2023/05/31 02:59:08;;;;;;;5.07;3.67;;;;;;;25.10;55.05;101176.84;5094483;28;20036;-57
2023/05/31 03:01:41;;;;;;;5.38;4.32;;;;;;;25.10;55.36;101174.13;5093947;28;20052;-56
2023/05/31 03:04:36;;;;;;;5.35;3.85;;;;;;;25.10;55.21;101171.41;5093513;28;20388;-56
2023/05/31 03:07:04;;;;;;;4.50;3.65;;;;;;;25.11;55.36;101175.81;5093648;28;20059;-56
2023/05/31 03:09:31;;;;;;;5.28;3.85;;;;;;;25.12;55.28;101174.84;5093370;28;20048;-56
2023/05/31 03:12:01;;;;;;;4.88;3.58;;;;;;;25.11;55.55;101171.25;5093539;28;20063;-56
2023/05/31 03:14:30;;;;;;;4.97;3.85;;;;;;;25.13;55.54;101171.09;5092600;28;20048;-56
2023/05/31 03:16:59;;;;;;;5.05;3.78;;;;;;;25.12;55.40;101167.56;5094564;28;20063;-57
2023/05/31 03:19:26;;;;;;;6.28;3.80;;;;;;;25.12;55.31;101167.56;5093263;28;20048;-57
2023/05/31 03:21:54;;;;;;;7.10;4.03;;;;;;;25.13;55.50;101173.81;5077003;28;20059;-57
2023/05/31 03:24:25;;;;;;;4.73;3.80;;;;;;;25.12;55.36;101172.13;5072872;28;20061;-58
2023/05/31 03:26:54;;;;;;;5.65;3.85;;;;;;;25.10;54.75;101177.69;5073109;28;20056;-54
2023/05/31 03:29:22;;;;;;;6.75;4.28;;;;;;;25.03;53.07;101176.59;5072563;28;20147;-54
2023/05/31 03:31:50;;;;;;;4.47;3.85;;;;;;;24.95;52.46;101175.69;5082460;28;20054;-53
2023/05/31 03:34:17;;;;;;;5.53;3.70;;;;;;;24.85;52.11;101182.09;5093493;28;20052;-54
2023/05/31 03:36:45;;;;;;;4.78;3.55;;;;;;;24.79;51.81;101185.41;5092703;28;20074;-58
2023/05/31 03:39:31;;;;;;;6.05;4.15;;;;;;;24.79;51.78;101185.41;5101032;28;20499;-58
2023/05/31 03:42:01;;;;;;;5.68;4.03;;;;;;;24.81;52.24;101179.88;5092524;28;20048;-56
2023/05/31 03:44:29;;;;;;;5.53;4.10;;;;;;;24.84;53.23;101185.81;5092935;28;20523;-57
2023/05/31 03:46:57;;;;;;;4.53;3.67;;;;;;;24.86;53.81;101183.78;5092482;28;20507;-56
2023/05/31 03:49:25;;;;;;;6.15;4.25;;;;;;;24.89;54.20;101182.63;5092135;28;20509;-57
2023/05/31 03:51:52;;;;;;;6.35;3.65;;;;;;;24.91;54.24;101186.00;5094061;28;20048;-57
2023/05/31 03:54:20;;;;;;;6.22;3.80;;;;;;;24.92;54.26;101198.56;5092470;28;20043;-56
2023/05/31 03:56:48;;;;;;;4.63;3.72;;;;;;;24.93;54.10;101192.13;5093679;28;20051;-57
2023/05/31 03:59:15;;;;;;;5.78;3.63;;;;;;;24.95;54.31;101195.50;5092004;28;20052;-56
2023/05/31 04:01:43;;;;;;;5.20;3.40;;;;;;;24.96;54.41;101194.53;5093631;28;20044;-57
2023/05/31 04:04:10;;;;;;;4.35;3.38;;;;;;;24.96;54.10;101199.09;5092477;28;20059;-57
2023/05/31 04:06:38;;;;;;;5.95;3.67;;;;;;;24.97;54.23;101196.22;5091908;28;20436;-57
2023/05/31 04:09:06;;;;;;;5.55;3.75;;;;;;;24.97;54.21;101196.22;5092299;28;20055;-56
2023/05/31 04:11:33;;;;;;;5.18;3.97;;;;;;;24.97;54.15;101190.78;5093357;28;20043;-57
2023/05/31 04:14:01;;;;;;;5.25;3.60;;;;;;;24.98;53.94;101206.03;5092271;28;20502;-57
2023/05/31 04:16:28;;;;;;;4.70;3.35;;;;;;;24.99;54.06;101198.75;5092783;28;20050;-58
2023/05/31 04:18:57;;;;;;;5.38;3.65;;;;;;;24.98;54.28;101197.91;5092299;28;20048;-58
2023/05/31 04:21:24;;;;;;;4.85;3.90;;;;;;;24.99;53.94;101202.31;5089500;28;20427;-57
2023/05/31 04:23:52;;;;;;;6.15;4.10;;;;;;;24.99;53.89;101199.59;5071887;28;20044;-57
2023/05/31 04:26:20;;;;;;;5.18;3.58;;;;;;;25.00;54.11;101186.94;5073735;28;20056;-57
2023/05/31 04:28:53;;;;;;;4.30;3.03;;;;;;;25.00;53.94;101198.59;5071628;28;20496;-57
2023/05/31 04:31:25;;;;;;;5.93;3.30;;;;;;;24.99;53.92;101188.75;5071890;28;20045;-57
2023/05/31 04:34:10;;;;;;;4.82;3.50;;;;;;;24.99;53.87;101199.59;5072084;28;20049;-57
2023/05/31 04:36:39;;;;;;;4.47;3.50;;;;;;;24.99;54.01;101202.31;5054833;28;20052;-57
2023/05/31 04:39:12;;;;;;;4.80;3.40;;;;;;;25.01;53.91;101202.16;5071868;28;20052;-57
2023/05/31 04:41:42;;;;;;;6.40;3.95;;;;;;;25.01;53.95;101205.72;5072207;28;20063;-57
2023/05/31 04:44:09;;;;;;;3.92;2.92;;;;;;;25.01;54.07;101207.56;5071765;28;20052;-57
2023/05/31 04:46:40;;;;;;;4.18;3.50;;;;;;;25.01;53.87;101202.16;5072817;28;20056;-57
2023/05/31 04:49:09;;;;;;;5.28;3.45;;;;;;;25.01;54.02;101211.13;5088590;28;20063;-57
2023/05/31 04:51:37;;;;;;;4.28;3.20;;;;;;;25.00;53.78;101209.44;5093407;28;20032;-56
2023/05/31 04:54:05;;;;;;;5.55;3.42;;;;;;;25.01;53.99;101207.56;5091832;28;20051;-56
2023/05/31 04:56:33;;;;;;;6.50;3.80;;;;;;;25.01;53.98;101210.28;5091774;28;20500;-57
2023/05/31 04:59:00;;;;;;;5.82;3.97;;;;;;;25.02;53.76;101218.25;5091869;28;20696;-56
2023/05/31 05:01:28;;;;;;;4.57;3.58;;;;;;;25.01;53.91;101216.56;5092355;28;20058;-56
2023/05/31 05:04:03;;;;;;;4.35;3.35;;;;;;;25.01;54.06;101221.97;5091520;28;20056;-57
2023/05/31 05:06:30;;;;;;;5.43;3.70;;;;;;;25.02;53.79;101215.53;5091725;28;20056;-57
2023/05/31 05:08:58;;;;;;;4.15;3.40;;;;;;;25.01;54.07;101221.97;5093096;28;20416;-57
2023/05/31 05:11:27;;;;;;;7.38;4.28;;;;;;;25.02;53.99;101218.25;5093850;28;20507;-56
2023/05/31 05:13:55;;;;;;;5.28;3.55;;;;;;;25.03;53.97;101219.94;5096732;28;20044;-56
2023/05/31 05:16:24;;;;;;;4.68;3.45;;;;;;;25.04;54.09;101231.66;5095958;28;20079;-56
2023/05/31 05:18:53;;;;;;;6.03;4.13;;;;;;;25.04;54.09;101221.66;5095596;28;20056;-56
2023/05/31 05:21:20;;;;;;;4.35;3.42;;;;;;;25.04;54.14;101220.81;5096739;28;20476;-57
2023/05/31 05:23:48;;;;;;;4.85;3.58;;;;;;;25.04;53.98;101223.53;5092067;28;20044;-57
2023/05/31 05:26:15;;;;;;;4.78;3.63;;;;;;;25.04;54.11;101215.41;5094871;28;20526;-57
2023/05/31 05:28:43;;;;;;;4.55;3.42;;;;;;;25.04;54.09;101229.78;5095506;28;20052;-56
2023/05/31 05:31:10;;;;;;;5.43;3.70;;;;;;;25.05;53.87;101225.22;5095806;28;20051;-57
2023/05/31 05:33:43;;;;;;;4.65;3.65;;;;;;;25.03;54.06;101225.34;5095243;28;20048;-57
2023/05/31 05:36:12;;;;;;;6.15;3.65;;;;;;;25.04;53.97;101232.50;5095118;28;20538;-57
2023/05/31 05:38:45;;;;;;;7.65;3.85;;;;;;;25.04;54.12;101228.94;5095830;28;20075;-57
2023/05/31 05:41:13;;;;;;;5.93;3.38;;;;;;;25.04;53.98;101235.19;5095139;28;20059;-57
2023/05/31 05:43:42;;;;;;;5.07;3.75;;;;;;;25.05;53.98;101236.88;5095633;28;20052;-58
2023/05/31 05:46:13;;;;;;;4.78;3.47;;;;;;;25.04;53.94;101232.50;5095374;28;20063;-57
2023/05/31 05:48:41;;;;;;;6.07;4.15;;;;;;;25.03;54.09;101236.19;5095011;28;20048;-57
2023/05/31 05:51:09;;;;;;;5.40;3.67;;;;;;;25.05;54.15;101236.03;5094781;28;20063;-56
2023/05/31 05:53:37;;;;;;;5.40;3.45;;;;;;;25.05;54.14;101231.47;5095288;28;20048;-56
2023/05/31 05:56:05;;;;;;;7.35;3.90;;;;;;;25.06;54.08;101245.88;5094780;28;20051;-56
2023/05/31 05:58:46;;;;;;;5.80;4.28;;;;;;;25.05;54.18;101245.03;5095037;28;20118;-56
2023/05/31 06:01:35;;;;;;;5.28;3.67;;;;;;;25.05;54.32;101239.59;5095163;28;20059;-56
2023/05/31 06:04:05;;;;;;;4.80;3.60;;;;;;;25.06;54.32;101238.59;5094512;28;20055;-57
2023/05/31 06:06:33;;;;;;;5.30;3.42;;;;;;;25.06;54.23;101246.72;5094792;28;20055;-58
2023/05/31 06:09:00;;;;;;;6.03;3.97;;;;;;;25.07;54.47;101245.69;5078616;28;20142;-57
2023/05/31 06:11:28;;;;;;;5.57;3.78;;;;;;;25.07;54.44;101242.97;5094485;28;20526;-57
2023/05/31 06:13:57;;;;;;;5.47;4.20;;;;;;;25.08;54.65;101246.56;5094629;28;20055;-58
2023/05/31 06:16:31;;;;;;;5.65;3.75;;;;;;;25.08;54.70;101244.72;5095173;28;20056;-57
2023/05/31 06:18:58;;;;;;;6.63;4.30;;;;;;;25.08;54.46;101244.72;5094531;28;20048;-57
2023/05/31 06:21:26;;;;;;;5.18;3.83;;;;;;;25.09;53.82;101248.28;5095030;28;20059;-57
2023/05/31 06:23:53;;;;;;;6.32;5.00;;;;;;;25.07;53.23;101242.13;5087969;28;20051;-58
2023/05/31 06:26:21;;;;;;;5.18;3.95;;;;;;;25.08;53.15;101239.28;5086244;28;20044;-57
2023/05/31 06:28:48;;;;;;;4.85;3.83;;;;;;;25.08;53.35;101250.13;5094307;28;20055;-57
2023/05/31 06:31:38;;;;;;;5.00;3.53;;;;;;;25.10;53.78;101239.16;5095573;28;20056;-56
2023/05/31 06:34:06;;;;;;;4.93;4.07;;;;;;;25.10;54.05;101245.41;5095016;28;20043;-57
2023/05/31 06:36:33;;;;;;;5.45;3.92;;;;;;;25.11;54.10;101249.81;5094976;28;20052;-57
2023/05/31 06:39:01;;;;;;;5.65;4.40;;;;;;;25.13;54.32;101250.53;5094150;28;20051;-56
2023/05/31 06:41:29;;;;;;;7.35;4.22;;;;;;;25.15;54.23;101250.34;5094055;28;20052;-57
2023/05/31 06:43:59;;;;;;;6.55;3.80;;;;;;;25.18;54.22;101249.19;5093506;28;20463;-59
2023/05/31 06:46:41;;;;;;;5.25;3.67;;;;;;;25.18;54.16;101247.31;5093749;28;20044;-57
2023/05/31 06:49:29;;;;;;;6.38;3.88;;;;;;;25.18;54.09;101250.03;5095162;28;20055;-57
2023/05/31 06:52:31;;;;;;;6.78;3.72;;;;;;;25.19;54.11;101245.47;5094233;28;20055;-58
2023/05/31 06:55:17;;;;;;;5.00;3.42;;;;;;;25.18;54.30;101243.78;5100954;28;20114;-57
2023/05/31 06:57:45;;;;;;;4.90;3.65;;;;;;;25.18;54.16;101249.19;5094746;28;20051;-57
2023/05/31 07:00:13;;;;;;;5.35;3.30;;;;;;;25.17;54.25;101256.47;5093764;28;20476;-58
2023/05/31 07:02:41;;;;;;;5.13;3.53;;;;;;;25.18;54.39;101260.03;5093776;28;20047;-57
2023/05/31 07:05:08;;;;;;;4.90;3.85;;;;;;;25.19;54.47;101256.31;5094442;28;20055;-58
2023/05/31 07:07:36;;;;;;;5.13;3.47;;;;;;;25.20;54.40;101241.72;5093161;28;20399;-58
2023/05/31 07:10:05;;;;;;;7.03;3.88;;;;;;;25.21;54.43;101248.88;5093286;28;20059;-57
2023/05/31 07:12:32;;;;;;;6.53;4.57;;;;;;;25.22;54.30;101250.56;5093637;28;20048;-58
2023/05/31 07:14:59;;;;;;;5.18;3.70;;;;;;;25.21;53.57;101246.16;5094753;28;20059;-58
2023/05/31 07:17:29;;;;;;;6.30;3.80;;;;;;;25.18;52.42;101241.91;5093682;28;20052;-57
2023/05/31 07:19:57;;;;;;;5.47;4.07;;;;;;;25.14;51.90;101238.66;5093547;28;20059;-57
2023/05/31 07:22:29;;;;;;;5.25;4.10;;;;;;;25.13;51.62;101247.81;5094514;28;20040;-57
2023/05/31 07:24:57;;;;;;;5.43;4.30;;;;;;;25.10;51.24;101242.69;5094517;28;20044;-57
2023/05/31 07:27:25;;;;;;;6.90;4.57;;;;;;;25.06;50.86;101238.59;5094394;28;20047;-57
2023/05/31 07:29:52;;;;;;;5.82;4.57;;;;;;;25.01;50.40;101243.63;5094160;28;20407;-57
2023/05/31 07:32:19;;;;;;;5.85;3.80;;;;;;;24.94;50.28;101239.00;5094050;28;20110;-58
2023/05/31 07:34:47;;;;;;;5.47;4.15;;;;;;;24.88;49.90;101232.38;5094214;28;20050;-57
2023/05/31 07:37:30;;;;;;;5.53;4.63;;;;;;;24.86;49.96;101240.66;5093630;28;20052;-58
2023/05/31 07:39:58;;;;;;;5.28;3.97;;;;;;;24.90;49.71;101238.47;5093800;28;20063;-57
2023/05/31 07:42:26;;;;;;;5.22;3.92;;;;;;;24.95;50.52;101236.13;5094263;28;20052;-58
2023/05/31 07:44:54;;;;;;;6.47;4.25;;;;;;;25.00;50.65;101241.94;5093739;28;20051;-58
2023/05/31 07:47:22;;;;;;;5.30;4.00;;;;;;;25.04;51.23;101228.94;5092845;28;20055;-58
2023/05/31 07:49:51;;;;;;;4.85;3.80;;;;;;;25.07;51.49;101229.44;5093925;28;20059;-58
2023/05/31 07:52:21;;;;;;;4.82;3.53;;;;;;;25.12;51.16;101229.00;5093805;28;20051;-57
2023/05/31 07:54:49;;;;;;;5.85;4.28;;;;;;;25.17;51.14;101234.78;5092516;28;20055;-57
2023/05/31 07:57:19;;;;;;;5.00;3.67;;;;;;;25.18;51.11;101231.06;5093263;28;20548;-57
2023/05/31 07:59:49;;;;;;;6.10;4.07;;;;;;;25.21;51.12;101238.03;5093686;28;20055;-57
2023/05/31 08:02:16;;;;;;;5.75;3.88;;;;;;;25.20;51.40;101220.06;5093862;28;20418;-57
2023/05/31 08:04:44;;;;;;;5.57;3.97;;;;;;;25.23;51.39;101230.59;5093643;28;20044;-57
2023/05/31 08:07:12;;;;;;;5.85;4.10;;;;;;;25.23;51.57;101226.00;5093598;28;20089;-57
2023/05/31 08:09:39;;;;;;;5.82;4.47;;;;;;;25.25;51.53;101224.00;5093560;28;20602;-57
2023/05/31 08:12:07;;;;;;;6.03;4.43;;;;;;;25.26;51.68;101236.53;5093592;28;20047;-58
2023/05/31 08:14:34;;;;;;;6.55;4.50;;;;;;;25.28;51.48;101233.66;5092355;28;20605;-58
2023/05/31 08:17:02;;;;;;;5.63;4.10;;;;;;;25.29;51.44;101229.94;5093562;28;20044;-58
2023/05/31 08:19:29;;;;;;;5.88;4.25;;;;;;;25.31;51.22;101231.47;5093345;28;20059;-58
2023/05/31 08:21:58;;;;;;;6.32;4.45;;;;;;;25.33;51.45;101228.63;5093490;28;20047;-58
2023/05/31 08:24:25;;;;;;;6.97;3.97;;;;;;;25.35;51.51;101232.00;5093429;28;20040;-58
2023/05/31 08:26:53;;;;;;;5.68;4.13;;;;;;;25.36;51.44;101230.97;5093361;28;20044;-58
2023/05/31 08:29:20;;;;;;;5.70;3.92;;;;;;;25.38;51.05;101239.81;5093334;28;20048;-58
2023/05/31 08:31:48;;;;;;;5.78;4.38;;;;;;;25.38;50.49;101235.25;5093332;28;20369;-57
2023/05/31 08:34:15;;;;;;;6.20;4.07;;;;;;;25.40;50.82;101232.34;5093207;28;20476;-57
2023/05/31 08:36:44;;;;;;;6.05;3.80;;;;;;;25.39;51.09;101226.09;5093131;28;20048;-57
2023/05/31 08:39:11;;;;;;;4.97;3.70;;;;;;;25.40;50.99;101235.06;5093241;28;20478;-57
2023/05/31 08:41:53;;;;;;;6.53;4.25;;;;;;;25.40;51.21;101226.94;5093379;28;20044;-58
2023/05/31 08:44:21;;;;;;;6.33;4.53;;;;;;;25.40;50.92;101227.81;5092543;28;20055;-58
2023/05/31 08:46:48;;;;;;;6.70;4.25;;;;;;;25.42;51.10;101229.50;5099140;28;20047;-58
2023/05/31 08:49:17;;;;;;;6.72;4.03;;;;;;;25.42;51.04;101224.94;5100007;28;20044;-58
2023/05/31 08:51:47;;;;;;;4.60;3.45;;;;;;;25.43;50.88;101228.47;5099962;28;20052;-58
2023/05/31 08:54:16;;;;;;;5.38;4.10;;;;;;;25.42;50.93;101221.38;5099741;28;20483;-57
2023/05/31 08:56:45;;;;;;;6.22;3.97;;;;;;;25.44;51.00;101231.00;5099814;28;20044;-57
2023/05/31 08:59:16;;;;;;;4.95;3.50;;;;;;;25.44;50.94;101220.19;5099784;28;20047;-57
2023/05/31 09:01:44;;;;;;;4.90;3.80;;;;;;;25.44;51.03;101225.59;5098709;28;20071;-58
2023/05/31 09:04:13;;;;;;;5.78;4.05;;;;;;;25.46;51.14;101223.59;5099746;28;20051;-57
2023/05/31 09:06:40;;;;;;;4.97;4.28;;;;;;;25.45;50.96;101219.19;5099788;28;20055;-57
2023/05/31 09:09:08;;;;;;;5.80;3.85;;;;;;;25.46;51.09;101217.31;5099738;28;20054;-57
2023/05/31 09:11:42;;;;;;;6.45;4.20;;;;;;;25.44;50.93;101212.03;5099141;28;20048;-58
2023/05/31 09:14:09;;;;;;;4.65;4.10;;;;;;;25.44;50.65;101227.47;5099756;28;20048;-58
2023/05/31 09:16:37;;;;;;;5.88;4.38;;;;;;;25.44;50.57;101222.03;5098466;28;20056;-58
2023/05/31 09:19:05;;;;;;;5.22;4.15;;;;;;;25.43;50.50;101223.91;5099225;28;20066;-58
2023/05/31 09:21:44;;;;;;;5.47;4.10;;;;;;;25.43;50.48;101237.47;5098243;28;20048;-58
2023/05/31 09:24:15;;;;;;;5.32;4.50;;;;;;;25.44;50.56;101227.47;5099538;28;20048;-58
2023/05/31 09:26:50;;;;;;;5.93;3.55;;;;;;;25.44;50.56;101222.03;5099476;28;20048;-58
2023/05/31 09:29:19;;;;;;;7.30;4.50;;;;;;;25.44;50.43;101222.03;5099602;28;20396;-58
2023/05/31 09:31:47;;;;;;;5.32;4.45;;;;;;;25.46;50.22;101220.03;5099368;28;20051;-58
2023/05/31 09:34:26;;;;;;;5.38;3.83;;;;;;;25.46;50.35;101214.63;5099453;28;20040;-57
2023/05/31 09:36:58;;;;;;;4.88;3.58;;;;;;;25.47;50.37;101217.16;5099311;28;20056;-58
2023/05/31 09:39:25;;;;;;;5.22;4.05;;;;;;;25.44;50.66;101206.63;5099474;28;20048;-58
2023/05/31 09:41:58;;;;;;;6.13;4.53;;;;;;;25.45;50.50;101213.75;5099468;28;20044;-58
2023/05/31 09:44:27;;;;;;;6.75;4.05;;;;;;;25.44;50.40;101209.34;5099334;28;20048;-58
2023/05/31 09:46:56;;;;;;;5.88;4.10;;;;;;;25.45;50.59;101207.50;5099200;28;20048;-58
2023/05/31 09:49:24;;;;;;;6.22;3.90;;;;;;;25.45;50.64;101213.75;5098159;28;20058;-58
2023/05/31 09:51:52;;;;;;;7.05;4.50;;;;;;;25.45;50.68;101200.22;5099323;28;20507;-58
2023/05/31 09:54:25;;;;;;;5.88;4.25;;;;;;;25.46;50.58;101195.63;5098376;28;20044;-58
2023/05/31 09:56:55;;;;;;;5.72;3.78;;;;;;;25.46;50.57;101196.47;5096161;28;20048;-58
2023/05/31 09:59:22;;;;;;;5.10;3.80;;;;;;;25.47;50.85;101200.03;5096244;28;20488;-56
2023/05/31 10:01:50;;;;;;;6.00;4.15;;;;;;;25.48;50.52;101190.88;5094825;28;20055;-56
2023/05/31 10:04:19;;;;;;;4.72;3.60;;;;;;;25.47;50.46;101187.31;5094606;28;20527;-56
2023/05/31 10:06:47;;;;;;;6.20;4.03;;;;;;;25.48;50.44;101194.47;5096123;28;20048;-56
2023/05/31 10:09:15;;;;;;;6.95;4.43;;;;;;;25.47;50.24;101184.63;5095986;28;20055;-56
2023/05/31 10:11:50;;;;;;;6.50;4.70;;;;;;;25.47;50.17;101184.63;5096269;28;20055;-57
2023/05/31 10:14:32;;;;;;;6.05;4.53;;;;;;;25.47;50.10;101184.63;5096479;28;20067;-56
2023/05/31 10:17:05;;;;;;;5.03;3.90;;;;;;;25.47;50.01;101181.06;5095648;28;20480;-57
2023/05/31 10:19:37;;;;;;;6.57;4.25;;;;;;;25.47;49.81;101181.06;5095623;28;20044;-57
2023/05/31 10:22:07;;;;;;;5.85;4.30;;;;;;;25.45;50.06;101164.13;5096117;28;20048;-56
2023/05/31 10:25:10;;;;;;;6.88;4.53;;;;;;;25.45;50.41;101177.69;5095715;28;20122;-56
2023/05/31 10:27:41;;;;;;;9.83;4.20;;;;;;;25.43;50.64;101169.69;5095074;28;20063;-56
2023/05/31 10:30:12;;;;;;;5.28;4.35;;;;;;;25.43;50.88;101174.28;5095724;28;20496;-56
2023/05/31 10:32:46;;;;;;;6.72;4.22;;;;;;;25.43;51.14;101179.69;5095563;28;20043;-55
2023/05/31 10:35:14;;;;;;;5.53;4.30;;;;;;;25.43;51.29;101171.56;5095649;28;20040;-56
2023/05/31 10:37:44;;;;;;;5.63;4.40;;;;;;;25.42;51.21;101173.44;5094370;28;20059;-56
2023/05/31 10:40:35;;;;;;;7.60;4.57;;;;;;;25.43;51.80;101177.81;5095899;28;20052;-56
2023/05/31 10:43:36;;;;;;;5.15;4.65;;;;;;;25.43;52.20;101169.69;5095632;28;20040;-56
2023/05/31 10:46:10;;;;;;;5.45;4.03;;;;;;;25.46;52.10;101174.78;5094876;28;20066;-56
2023/05/31 10:49:05;;;;;;;5.78;4.53;;;;;;;25.46;51.93;101166.66;5095493;28;20047;-56
2023/05/31 10:51:46;;;;;;;7.40;5.07;;;;;;;25.48;52.05;101163.78;5095181;28;20055;-56
2023/05/31 10:54:25;;;;;;;6.03;4.45;;;;;;;25.49;51.46;101160.91;5095122;28;20036;-56
2023/05/31 10:56:54;;;;;;;6.28;4.32;;;;;;;25.50;51.65;101162.59;5095234;28;20048;-57
2023/05/31 10:59:26;;;;;;;6.88;5.00;;;;;;;25.55;48.12;101154.81;5095314;28;20055;-58
2023/05/31 11:01:55;;;;;;;4.63;4.13;;;;;;;25.52;48.87;101147.03;5095247;28;20055;-59
2023/05/31 11:04:24;;;;;;;7.40;4.43;;;;;;;25.52;49.93;101151.59;5095168;28;20531;-59
2023/05/31 11:06:54;;;;;;;9.07;4.75;;;;;;;25.51;50.96;101145.31;5095028;28;20488;-59
2023/05/31 11:09:22;;;;;;;7.15;4.40;;;;;;;25.51;51.38;101147.19;5094822;28;20044;-59
2023/05/31 11:11:49;;;;;;;5.03;4.15;;;;;;;25.50;51.74;101140.09;5095104;28;20054;-59
2023/05/31 11:14:31;;;;;;;6.38;4.50;;;;;;;25.50;51.69;101145.50;5094521;28;20044;-59
2023/05/31 11:17:06;;;;;;;6.05;4.60;;;;;;;25.49;51.61;101149.22;5094433;28;20400;-59
2023/05/31 11:19:37;;;;;;;7.05;4.80;;;;;;;25.49;51.79;101147.38;5094236;28;20050;-59
2023/05/31 11:22:13;;;;;;;6.57;5.05;;;;;;;25.48;51.39;101142.09;5094770;28;20048;-57
2023/05/31 11:24:55;;;;;;;7.10;5.10;;;;;;;25.48;51.52;101137.53;5094461;28;20044;-57
2023/05/31 11:27:36;;;;;;;6.70;5.45;;;;;;;25.48;51.29;101147.50;5094547;28;20051;-57
2023/05/31 11:30:13;;;;;;;6.87;5.70;;;;;;;25.47;51.36;101149.38;5093827;28;20048;-57
2023/05/31 11:32:40;;;;;;;9.85;6.15;;;;;;;25.48;51.39;101144.81;5094348;28;20400;-57
2023/05/31 11:35:14;;;;;;;9.35;7.80;;;;;;;25.48;51.24;101142.97;5094384;28;20051;-59
2023/05/31 11:37:43;;;;;;;9.93;7.97;;;;;;;25.48;51.20;101142.09;5094223;28;20064;-59
2023/05/31 11:40:15;;;;;;;8.23;6.97;;;;;;;25.47;50.97;101138.53;5094256;28;20051;-57